Time;durP1;ratioP1;P1;durP2;ratioP2;P2;SDS_P1;SDS_P2;PMS_P1;PMS_P2;Temp;Humidity;BMP_temperature;BMP_pressure;BME280_temperature;BME280_humidity;BME280_pressure;Samples;Min_cycle;Max_cycle;Signal;HPM_P1;HPM_P2
2022/11/06 00:00:15;;;;;;;;;;;6.30;99.90;;;;;;5069351;28;20400;-67
2022/11/06 00:02:41;;;;;;;10.45;4.45;;;6.30;99.90;;;;;;5068728;28;19920;-67
2022/11/06 00:07:51;;;;;;;10.27;4.70;;;6.30;99.90;;;;;;5071781;28;20115;-66
2022/11/06 00:10:18;;;;;;;7.70;3.80;;;6.20;99.90;;;;;;5072611;28;20136;-66
2022/11/06 00:12:43;;;;;;;9.00;5.32;;;6.20;99.90;;;;;;5034917;28;20041;-67
2022/11/06 00:15:10;;;;;;;8.07;3.67;;;6.20;99.90;;;;;;5070193;28;20142;-67
2022/11/06 00:17:35;;;;;;;15.07;4.07;;;6.20;99.90;;;;;;5062725;28;20120;-66
2022/11/06 00:20:02;;;;;;;11.57;4.47;;;6.10;99.90;;;;;;5054824;28;20036;-66
2022/11/06 00:22:35;;;;;;;10.15;4.30;;;6.10;99.90;;;;;;5045102;28;20461;-66
2022/11/06 00:25:01;;;;;;;10.68;4.50;;;6.10;99.90;;;;;;5043613;28;20747;-67
2022/11/06 00:27:27;;;;;;;10.25;4.43;;;6.10;99.90;;;;;;5047783;28;20071;-67
2022/11/06 00:29:53;;;;;;;13.68;4.78;;;6.10;99.90;;;;;;5049097;28;20033;-66
2022/11/06 00:32:19;;;;;;;;;;;6.10;99.90;;;;;;5042292;28;20042;-67
2022/11/06 00:34:46;;;;;;;8.43;4.65;;;6.10;99.90;;;;;;5045079;28;20003;-67
2022/11/06 00:37:12;;;;;;;9.00;4.72;;;6.10;99.90;;;;;;5047613;28;20047;-66
2022/11/06 00:39:37;;;;;;;16.90;6.22;;;6.10;99.90;;;;;;5043692;28;20127;-66
2022/11/06 00:42:03;;;;;;;11.27;5.18;;;6.10;99.90;;;;;;5043337;28;20133;-67
2022/11/06 00:44:28;;;;;;;7.10;4.35;;;6.20;99.90;;;;;;5045097;28;20053;-67
2022/11/06 00:46:54;;;;;;;15.85;4.95;;;6.20;99.90;;;;;;5047467;28;20067;-67
2022/11/06 00:49:20;;;;;;;12.30;4.25;;;6.20;99.90;;;;;;5045430;28;20450;-67
2022/11/06 00:51:45;;;;;;;;;;;6.10;99.90;;;;;;5048499;28;20036;-67
2022/11/06 00:54:12;;;;;;;9.68;3.90;;;6.10;99.90;;;;;;5044885;28;20015;-67
2022/11/06 00:56:38;;;;;;;11.50;4.60;;;6.10;99.90;;;;;;5052388;28;20043;-67
2022/11/06 00:59:08;;;;;;;8.57;3.97;;;6.10;99.90;;;;;;5044986;28;20037;-67
2022/11/06 01:01:37;;;;;;;6.18;3.58;;;6.10;99.90;;;;;;5045083;28;20052;-67
2022/11/06 01:04:07;;;;;;;13.95;4.90;;;6.10;99.90;;;;;;5044656;28;20071;-67
2022/11/06 01:06:38;;;;;;;8.63;3.97;;;6.10;99.90;;;;;;5056764;28;20101;-67
2022/11/06 01:09:05;;;;;;;12.52;4.05;;;6.10;99.90;;;;;;5051657;28;20396;-66
2022/11/06 01:11:33;;;;;;;9.88;3.80;;;6.10;99.90;;;;;;5046292;28;20482;-66
2022/11/06 01:14:00;;;;;;;8.73;3.38;;;6.10;99.90;;;;;;5052730;28;20089;-67
2022/11/06 01:16:26;;;;;;;12.10;4.18;;;6.10;99.90;;;;;;5047557;28;20083;-67
2022/11/06 01:18:54;;;;;;;7.50;3.67;;;6.10;99.90;;;;;;5043502;28;20099;-66
2022/11/06 01:21:25;;;;;;;8.88;3.33;;;6.00;99.90;;;;;;5047070;28;20048;-67
2022/11/06 01:23:54;;;;;;;9.75;3.80;;;6.10;99.90;;;;;;5042968;28;20378;-66
2022/11/06 01:26:20;;;;;;;7.78;3.20;;;6.00;99.90;;;;;;5046521;28;20041;-67
2022/11/06 01:28:45;;;;;;;6.63;3.13;;;6.00;99.90;;;;;;5043930;28;20044;-67
2022/11/06 01:31:13;;;;;;;;;;;6.00;99.90;;;;;;5046959;28;20029;-66
2022/11/06 01:33:39;;;;;;;6.75;2.97;;;6.00;99.90;;;;;;5044470;28;19927;-66
2022/11/06 01:36:07;;;;;;;11.77;3.58;;;6.00;99.90;;;;;;5047826;28;20048;-66
2022/11/06 01:38:33;;;;;;;14.38;3.85;;;6.00;99.90;;;;;;5045826;28;20037;-67
2022/11/06 01:41:00;;;;;;;8.15;3.15;;;6.10;99.90;;;;;;5046752;28;20032;-67
2022/11/06 01:43:43;;;;;;;7.82;3.47;;;6.10;99.90;;;;;;5044357;28;20401;-67
2022/11/06 01:46:09;;;;;;;6.35;3.17;;;6.10;99.90;;;;;;5046664;28;20041;-67
2022/11/06 01:48:37;;;;;;;11.77;3.70;;;6.10;99.90;;;;;;5044287;28;20033;-67
2022/11/06 01:51:03;;;;;;;9.63;3.70;;;6.10;99.90;;;;;;5045674;28;20097;-67
2022/11/06 01:53:29;;;;;;;5.78;3.10;;;6.00;99.90;;;;;;5044633;28;20067;-67
2022/11/06 01:56:00;;;;;;;7.38;3.10;;;6.00;99.90;;;;;;5046036;28;20044;-67
2022/11/06 01:58:28;;;;;;;5.85;2.60;;;6.00;99.90;;;;;;5038227;28;20045;-65
2022/11/06 02:00:54;;;;;;;11.07;3.05;;;5.90;99.90;;;;;;5058945;28;20496;-66
2022/11/06 02:03:20;;;;;;;9.32;3.00;;;5.90;99.90;;;;;;5044845;28;20033;-66
2022/11/06 02:05:46;;;;;;;8.07;3.13;;;5.90;99.90;;;;;;5045942;28;20049;-66
2022/11/06 02:08:15;;;;;;;8.15;3.65;;;5.90;99.90;;;;;;5043990;28;20037;-66
2022/11/06 02:10:41;;;;;;;12.15;3.30;;;5.90;99.90;;;;;;5045272;28;20045;-65
2022/11/06 02:13:21;;;;;;;7.97;2.92;;;5.80;99.90;;;;;;5040411;28;20041;-66
2022/11/06 02:15:46;;;;;;;6.82;2.75;;;5.90;99.90;;;;;;5042454;28;20037;-66
2022/11/06 02:18:28;;;;;;;10.65;2.97;;;5.80;99.90;;;;;;5044645;28;20656;-66
2022/11/06 02:21:22;;;;;;;6.70;3.10;;;5.80;99.90;;;;;;5045074;28;20044;-65
2022/11/06 02:24:07;;;;;;;8.73;2.40;;;5.80;99.90;;;;;;5041658;28;20042;-65
2022/11/06 02:26:47;;;;;;;6.63;2.63;;;5.80;99.90;;;;;;5042632;28;20040;-66
2022/11/06 02:29:33;;;;;;;8.68;3.00;;;5.70;99.90;;;;;;5035735;28;20045;-65
2022/11/06 02:32:06;;;;;;;10.45;3.45;;;5.70;99.90;;;;;;5044282;28;20079;-66
2022/11/06 02:34:35;;;;;;;4.30;2.75;;;5.70;99.90;;;;;;5041702;28;20044;-67
2022/11/06 02:37:09;;;;;;;12.27;3.05;;;5.70;99.90;;;;;;5041171;28;20552;-66
2022/11/06 02:39:38;;;;;;;4.93;2.70;;;5.70;99.90;;;;;;5042420;28;20400;-65
2022/11/06 02:42:06;;;;;;;10.77;3.20;;;5.70;99.90;;;;;;5044086;28;20204;-66
2022/11/06 02:44:35;;;;;;;16.50;3.95;;;5.60;99.90;;;;;;5040729;28;20817;-66
2022/11/06 02:47:05;;;;;;;10.93;3.78;;;5.70;99.90;;;;;;5042233;28;20048;-66
2022/11/06 02:49:53;;;;;;;12.15;3.55;;;5.60;99.90;;;;;;5042970;28;20072;-65
2022/11/06 02:52:28;;;;;;;8.70;3.75;;;5.60;99.90;;;;;;5044151;28;20512;-65
2022/11/06 02:55:04;;;;;;;10.27;4.40;;;5.60;99.90;;;;;;5042599;28;20037;-66
2022/11/06 02:57:34;;;;;;;;;;;5.60;99.90;;;;;;5041612;28;20072;-65
2022/11/06 03:00:07;;;;;;;14.95;4.30;;;5.60;99.90;;;;;;5043600;28;20300;-66
2022/11/06 03:02:39;;;;;;;6.40;3.63;;;5.60;99.90;;;;;;5039705;28;20037;-65
2022/11/06 03:05:12;;;;;;;9.85;4.18;;;5.60;99.90;;;;;;5042476;28;20043;-65
2022/11/06 03:07:42;;;;;;;10.70;3.53;;;5.60;99.90;;;;;;5042886;28;20110;-66
2022/11/06 03:10:08;;;;;;;9.25;3.53;;;5.60;99.90;;;;;;5042449;28;20044;-66
2022/11/06 03:12:47;;;;;;;7.15;3.88;;;5.60;99.90;;;;;;5043624;28;20072;-65
2022/11/06 03:15:30;;;;;;;5.70;3.28;;;5.60;99.90;;;;;;5042535;28;20044;-65
2022/11/06 03:18:14;;;;;;;10.82;4.40;;;5.70;99.90;;;;;;5040823;28;20065;-65
2022/11/06 03:21:03;;;;;;;11.20;4.05;;;5.60;99.90;;;;;;5044072;28;20068;-66
2022/11/06 03:23:35;;;;;;;8.80;3.67;;;5.60;99.90;;;;;;5039850;28;20516;-66
2022/11/06 03:26:11;;;;;;;9.52;3.72;;;5.60;99.90;;;;;;5041307;28;20666;-66
2022/11/06 03:29:01;;;;;;;8.23;3.83;;;5.50;99.90;;;;;;5040215;28;20044;-66
2022/11/06 03:31:37;;;;;;;8.38;3.28;;;5.50;99.90;;;;;;5039100;28;20037;-66
2022/11/06 03:34:11;;;;;;;13.27;3.80;;;5.50;99.90;;;;;;5042291;28;20041;-66
2022/11/06 03:36:48;;;;;;;6.93;3.42;;;5.50;99.90;;;;;;5044292;28;20287;-67
2022/11/06 03:39:18;;;;;;;10.98;3.92;;;5.50;99.90;;;;;;5041552;28;20446;-67
2022/11/06 03:42:15;;;;;;;10.25;3.78;;;5.50;99.90;;;;;;5044277;28;20029;-66
2022/11/06 03:44:48;;;;;;;12.40;3.30;;;5.50;99.90;;;;;;5041723;28;20073;-67
2022/11/06 03:47:21;;;;;;;8.95;3.10;;;5.40;99.90;;;;;;5044455;28;20086;-66
2022/11/06 03:49:56;;;;;;;13.13;3.78;;;5.40;99.90;;;;;;5042628;28;20077;-66
2022/11/06 03:52:38;;;;;;;8.75;3.70;;;5.50;99.90;;;;;;5044748;28;20200;-66
2022/11/06 03:55:17;;;;;;;10.73;3.47;;;5.50;99.90;;;;;;5042182;28;20103;-66
2022/11/06 03:57:52;;;;;;;13.27;5.03;;;5.50;99.90;;;;;;5044348;28;20041;-66
2022/11/06 04:00:19;;;;;;;6.93;3.40;;;5.40;99.90;;;;;;5044419;28;20528;-66
2022/11/06 04:03:03;;;;;;;8.90;3.70;;;5.40;99.90;;;;;;5048884;28;20800;-66
2022/11/06 04:05:34;;;;;;;10.52;3.72;;;5.40;99.90;;;;;;5046258;28;20041;-66
2022/11/06 04:16:28;;;;;;;13.18;5.63;;;5.40;99.90;;;;;;5046770;28;20383;-66
2022/11/06 04:18:54;;;;;;;11.88;4.72;;;5.40;99.90;;;;;;5046430;28;20148;-66
2022/11/06 04:21:45;;;;;;;7.57;3.78;;;5.50;99.90;;;;;;5048133;28;20183;-66
2022/11/06 04:27:19;;;;;;;9.32;4.40;;;5.50;99.90;;;;;;5043829;28;20124;-66
2022/11/06 04:30:06;;;;;;;10.43;3.95;;;5.50;99.90;;;;;;5048107;28;20396;-65
2022/11/06 04:32:50;;;;;;;7.38;3.83;;;5.50;99.90;;;;;;5043033;28;20150;-65
2022/11/06 04:35:46;;;;;;;9.43;4.20;;;5.40;99.90;;;;;;5044855;28;20033;-66
2022/11/06 04:38:39;;;;;;;10.18;3.40;;;5.40;99.90;;;;;;5039601;28;20360;-66
2022/11/06 04:41:11;;;;;;;7.35;3.70;;;5.40;99.90;;;;;;5046894;28;20041;-66
2022/11/06 04:43:53;;;;;;;9.25;3.45;;;5.40;99.90;;;;;;5043780;28;20123;-66
2022/11/06 04:46:44;;;;;;;6.07;2.95;;;5.40;99.90;;;;;;5045995;28;20033;-65
2022/11/06 04:49:11;;;;;;;10.10;3.80;;;5.50;99.90;;;;;;5047111;28;20045;-65
2022/11/06 04:51:39;;;;;;;14.05;4.43;;;5.50;99.90;;;;;;5056822;28;20045;-65
2022/11/06 04:54:08;;;;;;;10.30;3.85;;;5.40;99.90;;;;;;5044802;28;20044;-66
2022/11/06 04:56:34;;;;;;;17.30;3.47;;;5.40;99.90;;;;;;5047187;28;20049;-65
2022/11/06 04:59:01;;;;;;;10.93;3.85;;;5.40;99.90;;;;;;5036478;28;20744;-66
2022/11/06 05:01:27;;;;;;;18.60;3.85;;;5.40;99.90;;;;;;5046053;28;20623;-66
2022/11/06 05:03:52;;;;;;;12.07;4.55;;;5.40;99.90;;;;;;5044400;28;20033;-65
2022/11/06 05:06:18;;;;;;;6.43;3.28;;;5.40;99.90;;;;;;5047770;28;20401;-66
2022/11/06 05:08:43;;;;;;;;;;;5.40;99.90;;;;;;5043605;28;20090;-66
2022/11/06 05:11:09;;;;;;;9.00;3.10;;;5.40;99.90;;;;;;5049881;28;19917;-66
2022/11/06 05:13:35;;;;;;;10.13;3.45;;;5.40;99.90;;;;;;5044368;28;20064;-66
2022/11/06 05:16:00;;;;;;;6.57;2.97;;;5.30;99.90;;;;;;5041147;28;20378;-66
2022/11/06 05:18:26;;;;;;;5.50;3.00;;;5.30;99.90;;;;;;5044977;28;20038;-66
2022/11/06 05:22:56;;;;;;;10.98;3.92;;;5.30;99.90;;;;;;5045351;28;20041;-66
2022/11/06 05:23:38;;;;;;;6.85;2.97;;;5.30;99.90;;;;;;5041681;28;20041;-66
2022/11/06 05:26:04;;;;;;;7.55;3.28;;;5.30;99.90;;;;;;5046081;28;20147;-67
2022/11/06 05:28:30;;;;;;;8.80;3.20;;;5.40;99.90;;;;;;5044393;28;20048;-66
2022/11/06 05:30:56;;;;;;;6.35;2.63;;;5.40;99.90;;;;;;5046048;28;20041;-66
2022/11/06 05:33:22;;;;;;;;;;;5.40;99.90;;;;;;5045311;28;20962;-66
2022/11/06 05:35:48;;;;;;;8.10;3.30;;;5.40;99.90;;;;;;5045880;28;19942;-66
2022/11/06 05:38:14;;;;;;;10.82;3.42;;;5.40;99.90;;;;;;5044440;28;20044;-67
2022/11/06 05:40:40;;;;;;;5.60;3.20;;;5.40;99.90;;;;;;5044329;28;20047;-66
2022/11/06 05:43:06;;;;;;;10.23;3.45;;;5.30;99.90;;;;;;5043801;28;20037;-65
2022/11/06 05:45:31;;;;;;;8.02;3.33;;;5.30;99.90;;;;;;5044101;28;20065;-66
2022/11/06 05:47:57;;;;;;;8.48;3.10;;;5.30;99.90;;;;;;5046098;28;20028;-65
2022/11/06 05:50:23;;;;;;;6.30;3.33;;;5.30;99.90;;;;;;5043209;28;20520;-66
2022/11/06 05:52:49;;;;;;;7.68;3.38;;;5.30;99.90;;;;;;5061629;28;20045;-66
2022/11/06 05:55:16;;;;;;;6.50;3.50;;;5.30;99.90;;;;;;5041442;28;20043;-64
2022/11/06 05:57:42;;;;;;;9.40;3.67;;;5.30;99.90;;;;;;5041219;28;20070;-65
2022/11/06 06:00:09;;;;;;;11.38;3.30;;;5.40;99.90;;;;;;5039948;28;20505;-66
2022/11/06 06:02:35;;;;;;;13.70;4.15;;;5.40;99.90;;;;;;5044331;28;20045;-64
2022/11/06 06:05:01;;;;;;;13.68;3.53;;;5.40;99.90;;;;;;5043232;28;20040;-66
2022/11/06 06:07:26;;;;;;;7.28;4.03;;;5.40;99.90;;;;;;5046060;28;20472;-65
2022/11/06 06:09:52;;;;;;;;;;;5.40;99.90;;;;;;5043298;28;20037;-65
2022/11/06 06:12:18;;;;;;;8.00;4.35;;;5.50;99.90;;;;;;5053572;28;20404;-65
2022/11/06 06:14:44;;;;;;;6.03;3.63;;;5.40;99.90;;;;;;5042139;28;20045;-66
2022/11/06 06:17:09;;;;;;;7.85;4.03;;;5.50;99.90;;;;;;5045422;28;20055;-63
2022/11/06 06:19:35;;;;;;;10.93;4.10;;;5.50;99.90;;;;;;5042451;28;20029;-65
2022/11/06 06:22:01;;;;;;;9.80;4.60;;;5.50;99.90;;;;;;5047961;28;20036;-66
2022/11/06 06:24:26;;;;;;;22.83;9.77;;;5.50;99.90;;;;;;5050947;28;20033;-65
2022/11/06 06:26:52;;;;;;;;;;;5.50;99.90;;;;;;5044548;28;20045;-66
2022/11/06 06:29:17;;;;;;;11.10;4.25;;;5.50;99.90;;;;;;5050471;28;19925;-66
2022/11/06 06:31:43;;;;;;;;;;;5.40;99.90;;;;;;5041543;28;20385;-64
2022/11/06 06:34:08;;;;;;;8.85;3.50;;;5.50;99.90;;;;;;5047105;28;19924;-66
2022/11/06 06:36:34;;;;;;;;;;;5.40;99.90;;;;;;5051520;28;20132;-65
2022/11/06 06:39:00;;;;;;;10.85;3.65;;;5.40;99.90;;;;;;5048421;28;19932;-67
2022/11/06 06:41:25;;;;;;;;;;;5.40;99.90;;;;;;5039058;28;20481;-66
2022/11/06 06:43:51;;;;;;;8.95;3.50;;;5.40;99.90;;;;;;5042225;28;19924;-67
2022/11/06 06:46:17;;;;;;;15.65;3.45;;;5.40;99.90;;;;;;5044753;28;20055;-67
2022/11/06 06:48:42;;;;;;;8.60;3.10;;;5.40;99.90;;;;;;5042842;28;20037;-66
2022/11/06 06:51:08;;;;;;;10.73;3.50;;;5.40;99.90;;;;;;5043991;28;20032;-66
2022/11/06 06:53:35;;;;;;;5.22;2.88;;;5.40;99.90;;;;;;5041847;28;20044;-66
2022/11/06 06:56:01;;;;;;;5.60;3.28;;;5.40;99.90;;;;;;5044810;28;20045;-66
2022/11/06 06:58:28;;;;;;;6.07;2.40;;;5.40;99.90;;;;;;5042882;28;20048;-66
2022/11/06 07:00:54;;;;;;;7.18;2.90;;;5.40;99.90;;;;;;5036881;28;20036;-65
2022/11/06 07:03:20;;;;;;;8.80;2.83;;;5.40;99.90;;;;;;5042280;28;20037;-66
2022/11/06 07:05:46;;;;;;;3.25;2.50;;;5.40;99.90;;;;;;5044068;28;20055;-65
2022/11/06 07:08:12;;;;;;;;;;;5.40;99.90;;;;;;5042641;28;20229;-65
2022/11/06 07:10:38;;;;;;;9.32;2.80;;;5.40;99.90;;;;;;5043439;28;19934;-65
2022/11/06 07:13:04;;;;;;;5.03;2.03;;;5.40;99.90;;;;;;5043336;28;20091;-65
2022/11/06 07:15:31;;;;;;;7.82;2.65;;;5.40;99.90;;;;;;5038919;28;20042;-65
2022/11/06 07:18:05;;;;;;;8.25;3.97;;;5.40;99.90;;;;;;5042160;28;20033;-63
2022/11/06 07:20:31;;;;;;;7.00;2.67;;;5.40;99.90;;;;;;5042278;28;20091;-65
2022/11/06 07:22:57;;;;;;;7.18;2.38;;;5.40;99.90;;;;;;5040672;28;20033;-66
2022/11/06 07:25:24;;;;;;;8.30;3.00;;;5.40;99.90;;;;;;5038353;28;20041;-64
2022/11/06 07:27:49;;;;;;;5.78;2.75;;;5.40;99.90;;;;;;5044841;28;20049;-64
2022/11/06 07:30:15;;;;;;;5.80;2.92;;;5.50;99.90;;;;;;5044762;28;20524;-66
2022/11/06 07:32:42;;;;;;;5.03;2.33;;;5.60;99.90;;;;;;5047955;28;20045;-65
2022/11/06 07:35:08;;;;;;;11.48;2.75;;;5.70;99.90;;;;;;5045315;28;20045;-65
2022/11/06 07:37:34;;;;;;;5.55;2.60;;;5.80;99.90;;;;;;5048550;28;20047;-65
2022/11/06 07:40:00;;;;;;;9.57;3.63;;;5.80;99.90;;;;;;5045154;28;20469;-66
2022/11/06 07:42:27;;;;;;;9.73;3.10;;;5.80;99.90;;;;;;5045343;28;20151;-66
2022/11/06 07:44:54;;;;;;;8.35;2.60;;;5.80;99.90;;;;;;5046307;28;20047;-65
2022/11/06 07:47:21;;;;;;;6.60;2.67;;;5.80;99.90;;;;;;5048269;28;20438;-65
2022/11/06 07:49:47;;;;;;;8.15;2.55;;;5.90;99.90;;;;;;5044197;28;20037;-66
2022/11/06 07:52:12;;;;;;;9.13;2.40;;;5.90;99.90;;;;;;5047560;28;20103;-66
2022/11/06 07:54:38;;;;;;;4.85;2.83;;;5.90;99.90;;;;;;5045187;28;20037;-66
2022/11/06 07:57:04;;;;;;;9.68;2.90;;;5.90;99.90;;;;;;5043227;28;20083;-67
2022/11/06 07:59:29;;;;;;;8.52;3.00;;;5.90;99.90;;;;;;5045640;28;20039;-68
2022/11/06 08:01:55;;;;;;;;;;;6.10;99.90;;;;;;5043040;28;20041;-66
2022/11/06 08:04:21;;;;;;;8.95;2.60;;;6.10;99.90;;;;;;5044444;28;20007;-65
2022/11/06 08:06:47;;;;;;;5.93;2.53;;;6.20;99.90;;;;;;5047509;28;20048;-67
2022/11/06 08:09:12;;;;;;;;;;;6.30;99.90;;;;;;5045771;28;20048;-66
2022/11/06 08:11:38;;;;;;;8.43;2.47;;;6.40;99.90;;;;;;5045870;28;19944;-66
2022/11/06 08:14:03;;;;;;;8.30;3.10;;;6.50;99.90;;;;;;5044045;28;20540;-65
2022/11/06 08:16:29;;;;;;;;;;;6.60;99.90;;;;;;5048856;28;20086;-67
2022/11/06 08:18:55;;;;;;;6.85;2.13;;;6.70;99.90;;;;;;5044700;28;19963;-66
2022/11/06 08:21:21;;;;;;;9.57;2.90;;;6.80;99.90;;;;;;5048226;28;20036;-67
2022/11/06 08:23:47;;;;;;;8.00;2.63;;;6.90;99.90;;;;;;5044278;28;20041;-67
2022/11/06 08:26:12;;;;;;;8.23;2.67;;;6.90;99.90;;;;;;5047649;28;20041;-68
2022/11/06 08:28:38;;;;;;;;;;;7.10;99.90;;;;;;5045172;28;20041;-67
2022/11/06 08:31:07;;;;;;;5.95;2.30;;;7.10;99.90;;;;;;5047610;28;20114;-67
2022/11/06 08:33:35;;;;;;;9.32;3.30;;;7.20;99.90;;;;;;5046069;28;20619;-65
2022/11/06 08:36:02;;;;;;;6.53;2.25;;;7.20;99.90;;;;;;5045286;28;20072;-66
2022/11/06 08:38:28;;;;;;;9.20;2.47;;;7.30;99.90;;;;;;5045365;28;20041;-66
2022/11/06 08:40:54;;;;;;;;;;;7.30;99.90;;;;;;5044388;28;20661;-67
2022/11/06 08:43:22;;;;;;;5.97;2.55;;;7.40;99.90;;;;;;5044825;28;19917;-66
2022/11/06 08:45:47;;;;;;;4.53;2.03;;;7.50;99.90;;;;;;5045359;28;20049;-67
2022/11/06 08:48:13;;;;;;;;;;;7.70;99.90;;;;;;5045081;28;20028;-66
2022/11/06 08:50:40;;;;;;;6.50;2.50;;;7.80;99.90;;;;;;5044941;28;19917;-65
2022/11/06 08:53:07;;;;;;;6.22;2.10;;;7.90;99.90;;;;;;5043520;28;20033;-65
2022/11/06 08:55:34;;;;;;;6.72;2.30;;;8.10;99.90;;;;;;5044493;28;20029;-66
2022/11/06 08:58:01;;;;;;;4.22;2.17;;;8.10;99.90;;;;;;5043428;28;20044;-66
2022/11/06 09:00:27;;;;;;;8.93;2.83;;;8.20;99.90;;;;;;5041168;28;20107;-66
2022/11/06 09:02:59;;;;;;;;;;;8.30;99.90;;;;;;5045859;28;20456;-66
2022/11/06 09:05:26;;;;;;;3.95;2.22;;;8.40;99.90;;;;;;5043252;28;20549;-66
2022/11/06 09:07:52;;;;;;;5.40;2.28;;;8.40;99.90;;;;;;5044912;28;20374;-67
2022/11/06 09:10:18;;;;;;;;;;;8.50;99.90;;;;;;5042974;28;20857;-66
2022/11/06 09:12:44;;;;;;;4.53;1.90;;;8.50;99.90;;;;;;5038628;28;19917;-66
2022/11/06 09:15:10;;;;;;;;;;;8.50;99.90;;;;;;5049865;28;20516;-65
2022/11/06 09:17:46;;;;;;;6.13;2.10;;;8.70;99.90;;;;;;5043469;28;20267;-67
2022/11/06 09:20:12;;;;;;;9.57;2.03;;;8.80;99.90;;;;;;5051395;28;20051;-67
2022/11/06 09:22:39;;;;;;;7.00;2.00;;;9.00;99.90;;;;;;5049136;28;20130;-68
2022/11/06 09:25:05;;;;;;;8.38;2.55;;;9.00;99.90;;;;;;5042305;28;20037;-67
2022/11/06 09:27:31;;;;;;;10.95;3.10;;;9.10;99.90;;;;;;5052569;28;20151;-67
2022/11/06 09:29:57;;;;;;;;;;;9.00;99.90;;;;;;5055231;28;20116;-67
2022/11/06 09:32:23;;;;;;;4.78;1.92;;;9.10;99.90;;;;;;5044178;28;19965;-67
2022/11/06 09:34:49;;;;;;;7.30;2.28;;;9.10;99.90;;;;;;5042243;28;20037;-67
2022/11/06 09:37:15;;;;;;;5.10;1.80;;;9.20;99.90;;;;;;5045471;28;20041;-67
2022/11/06 09:39:41;;;;;;;;;;;9.40;99.90;;;;;;5040711;28;20048;-67
2022/11/06 09:42:12;;;;;;;7.32;2.13;;;9.50;99.90;;;;;;5049138;28;19916;-67
2022/11/06 09:44:47;;;;;;;5.72;1.67;;;9.50;99.90;;;;;;5039552;28;20048;-67
2022/11/06 09:47:19;;;;;;;5.40;1.90;;;9.60;99.90;;;;;;5055498;28;20037;-65
2022/11/06 09:49:54;;;;;;;6.93;1.90;;;9.60;99.90;;;;;;5041442;28;20567;-65
2022/11/06 09:52:47;;;;;;;8.05;1.88;;;9.60;99.90;;;;;;5044691;28;20044;-66
2022/11/06 09:55:20;;;;;;;6.03;1.83;;;9.70;99.90;;;;;;5040352;28;20273;-66
2022/11/06 09:58:14;;;;;;;4.13;2.08;;;9.80;99.90;;;;;;5039680;28;20048;-66
2022/11/06 10:00:41;;;;;;;8.15;2.10;;;10.00;99.90;;;;;;5035798;28;21124;-67
2022/11/06 10:03:42;;;;;;;5.28;1.60;;;10.10;99.90;;;;;;5045201;28;20037;-66
2022/11/06 10:06:08;;;;;;;7.53;1.90;;;10.10;99.90;;;;;;5000950;28;20049;-66
2022/11/06 10:08:34;;;;;;;;;;;10.00;99.90;;;;;;5052302;28;20033;-67
2022/11/06 10:11:14;;;;;;;7.97;1.92;;;10.10;99.90;;;;;;5048017;28;19916;-66
2022/11/06 10:14:00;;;;;;;4.13;1.67;;;10.10;99.90;;;;;;5056657;28;20110;-66
2022/11/06 10:17:00;;;;;;;7.13;1.60;;;10.10;99.90;;;;;;5041200;28;20531;-66
2022/11/06 10:19:38;;;;;;;8.07;1.95;;;10.30;99.90;;;;;;5037178;28;20049;-67
2022/11/06 10:22:13;;;;;;;5.45;1.83;;;10.30;99.90;;;;;;5040749;28;20033;-67
2022/11/06 10:24:52;;;;;;;5.45;1.70;;;10.20;99.90;;;;;;5041782;28;20044;-65
2022/11/06 10:27:35;;;;;;;8.73;1.75;;;10.30;99.90;;;;;;5045207;28;20040;-66
2022/11/06 10:30:20;;;;;;;11.95;2.20;;;10.20;99.90;;;;;;5041398;28;20033;-66
2022/11/06 10:33:14;;;;;;;10.50;2.13;;;10.20;99.90;;;;;;5058373;28;20071;-66
2022/11/06 10:35:48;;;;;;;8.18;2.13;;;10.30;99.90;;;;;;5042923;28;20443;-66
2022/11/06 10:38:48;;;;;;;5.47;1.92;;;10.50;99.90;;;;;;5044614;28;20040;-66
2022/11/06 10:41:27;;;;;;;11.63;1.67;;;10.40;99.90;;;;;;5017276;28;20097;-66
2022/11/06 10:43:59;;;;;;;3.75;1.65;;;10.50;99.90;;;;;;5044893;28;20047;-66
2022/11/06 10:46:46;;;;;;;6.93;2.00;;;10.50;99.90;;;;;;5048188;28;20127;-66
2022/11/06 10:49:40;;;;;;;4.00;1.45;;;10.50;99.90;;;;;;5040239;28;20480;-66
2022/11/06 10:52:51;;;;;;;8.63;1.90;;;10.60;99.90;;;;;;5044801;28;20043;-66
2022/11/06 10:55:51;;;;;;;7.90;2.08;;;10.70;99.90;;;;;;5041241;28;20029;-66
2022/11/06 10:58:19;;;;;;;6.10;2.13;;;10.70;99.90;;;;;;5041843;28;20037;-66
2022/11/06 11:00:45;;;;;;;7.47;1.77;;;10.80;99.90;;;;;;5042446;28;20047;-65
2022/11/06 11:03:26;;;;;;;;;;;10.90;99.90;;;;;;5040808;28;20107;-66
2022/11/06 11:05:54;;;;;;;13.50;2.30;;;10.70;99.90;;;;;;5051540;28;19916;-66
2022/11/06 11:08:35;;;;;;;7.03;3.83;;;10.60;99.90;;;;;;5055722;28;20155;-65
2022/11/06 11:11:25;;;;;;;6.47;3.22;;;10.50;99.90;;;;;;5047282;28;20509;-67
2022/11/06 11:13:51;;;;;;;14.60;4.20;;;10.60;99.90;;;;;;5055158;28;20045;-65
2022/11/06 11:16:18;;;;;;;;;;;10.50;99.90;;;;;;5045139;28;20044;-66
2022/11/06 11:18:45;;;;;;;10.27;4.28;;;10.30;99.90;;;;;;5040978;28;20611;-64
2022/11/06 11:21:19;;;;;;;22.88;6.50;;;10.10;99.90;;;;;;5040484;28;20040;-68
2022/11/06 11:24:14;;;;;;;14.63;5.63;;;9.80;99.90;;;;;;5039381;28;20052;-66
2022/11/06 11:26:46;;;;;;;11.57;5.43;;;9.50;99.90;;;;;;5038468;28;20049;-66
2022/11/06 11:29:29;;;;;;;13.40;5.47;;;9.60;99.90;;;;;;5042273;28;20413;-66
2022/11/06 11:31:58;;;;;;;13.68;5.57;;;9.80;99.90;;;;;;5042690;28;20040;-66
2022/11/06 11:34:28;;;;;;;17.65;4.63;;;10.00;99.90;;;;;;5039125;28;20047;-66
2022/11/06 11:36:58;;;;;;;9.68;5.88;;;10.20;99.90;;;;;;5053869;28;20048;-66
2022/11/06 11:39:31;;;;;;;16.92;6.78;;;10.10;99.90;;;;;;5051128;28;20085;-66
2022/11/06 11:42:24;;;;;;;13.63;6.05;;;10.00;99.90;;;;;;5041351;28;20638;-65
2022/11/06 11:45:11;;;;;;;14.93;7.22;;;10.00;99.90;;;;;;5046774;28;20137;-68
2022/11/06 11:47:39;;;;;;;16.17;5.65;;;9.80;99.90;;;;;;5038252;28;20041;-65
2022/11/06 11:50:20;;;;;;;16.40;6.75;;;9.60;99.90;;;;;;5040040;28;20590;-66
2022/11/06 11:52:49;;;;;;;13.00;6.40;;;9.50;99.90;;;;;;5040594;28;20120;-65
2022/11/06 11:55:18;;;;;;;12.85;5.50;;;9.60;99.90;;;;;;5041298;28;20093;-64
2022/11/06 11:57:47;;;;;;;14.07;5.30;;;9.80;99.90;;;;;;5038340;28;20617;-66
2022/11/06 12:00:21;;;;;;;10.00;5.53;;;9.80;99.90;;;;;;5039062;28;20274;-67
2022/11/06 12:03:02;;;;;;;14.93;6.18;;;9.90;99.90;;;;;;5041379;28;20049;-64
2022/11/06 12:05:34;;;;;;;11.60;4.85;;;9.90;99.90;;;;;;5037209;28;20131;-67
2022/11/06 12:08:00;;;;;;;11.80;4.75;;;9.90;99.90;;;;;;5037111;28;20941;-66
2022/11/06 12:10:42;;;;;;;10.18;4.80;;;9.70;99.90;;;;;;5049326;28;20045;-65
2022/11/06 12:13:15;;;;;;;11.98;4.30;;;9.60;99.90;;;;;;5041297;28;20048;-66
2022/11/06 12:15:59;;;;;;;13.55;4.72;;;9.60;99.90;;;;;;5060714;28;20047;-66
2022/11/06 12:18:35;;;;;;;10.60;4.50;;;9.50;99.90;;;;;;5051833;28;20045;-66
2022/11/06 12:21:16;;;;;;;13.45;4.35;;;9.40;99.90;;;;;;5051001;28;20065;-67
2022/11/06 12:23:58;;;;;;;10.85;3.80;;;9.50;99.90;;;;;;5046910;28;20073;-66
2022/11/06 12:26:42;;;;;;;9.52;4.55;;;9.50;99.90;;;;;;5054367;28;20496;-67
2022/11/06 12:29:16;;;;;;;12.07;5.55;;;9.60;99.90;;;;;;5055245;28;20353;-67
2022/11/06 12:32:04;;;;;;;9.65;3.60;;;9.60;99.90;;;;;;5051261;28;20146;-66
2022/11/06 12:34:32;;;;;;;10.05;3.47;;;9.70;99.90;;;;;;5053063;28;20044;-68
2022/11/06 12:37:25;;;;;;;7.75;3.55;;;9.80;99.90;;;;;;5051187;28;20734;-67
2022/11/06 12:40:30;;;;;;;9.18;3.47;;;9.90;99.90;;;;;;5048296;28;20037;-68
2022/11/06 12:43:24;;;;;;;9.40;3.78;;;9.90;99.90;;;;;;5014965;28;20037;-66
2022/11/06 12:46:19;;;;;;;10.50;4.60;;;9.90;99.90;;;;;;5006656;28;20069;-67
2022/11/06 12:48:56;;;;;;;9.52;4.18;;;9.90;99.90;;;;;;5038551;28;20053;-67
2022/11/06 12:52:01;;;;;;;11.38;4.28;;;9.80;99.90;;;;;;5050863;28;20037;-67
2022/11/06 12:54:36;;;;;;;6.15;2.95;;;9.90;99.90;;;;;;5045309;28;20049;-67
2022/11/06 12:57:36;;;;;;;10.02;3.83;;;10.00;99.90;;;;;;5040349;28;20051;-67
2022/11/06 13:00:10;;;;;;;10.52;5.03;;;10.10;99.90;;;;;;5043417;28;20052;-67
2022/11/06 13:02:58;;;;;;;12.13;4.90;;;9.80;99.90;;;;;;5040650;28;20637;-67
2022/11/06 13:05:45;;;;;;;7.80;4.38;;;9.70;99.90;;;;;;5027658;28;20691;-67
2022/11/06 13:08:34;;;;;;;;;;;9.40;99.90;;;;;;5053679;28;20037;-67
2022/11/06 13:11:21;;;;;;;9.05;4.05;;;9.40;99.90;;;;;;5046395;28;19999;-67
2022/11/06 13:13:50;;;;;;;10.95;3.90;;;9.60;99.90;;;;;;5044138;28;20056;-67
2022/11/06 13:16:27;;;;;;;11.65;3.90;;;9.70;99.90;;;;;;5043636;28;20365;-67
2022/11/06 13:19:18;;;;;;;10.30;4.05;;;9.70;99.90;;;;;;5044347;28;20124;-67
2022/11/06 13:21:49;;;;;;;8.00;4.40;;;9.70;99.90;;;;;;5040916;28;20456;-67
2022/11/06 13:24:35;;;;;;;10.30;4.22;;;9.70;99.90;;;;;;5042558;28;20052;-67
2022/11/06 13:27:26;;;;;;;7.53;3.63;;;9.60;99.90;;;;;;5051201;28;20037;-67
2022/11/06 13:29:56;;;;;;;10.85;3.63;;;9.60;99.90;;;;;;5048568;28;20497;-68
2022/11/06 13:32:24;;;;;;;12.18;3.67;;;9.40;99.90;;;;;;5048150;28;20139;-67
2022/11/06 13:34:53;;;;;;;9.55;4.00;;;9.40;99.90;;;;;;5049172;28;20040;-67
2022/11/06 13:37:24;;;;;;;7.00;3.90;;;9.30;99.90;;;;;;5056403;28;20037;-67
2022/11/06 13:40:03;;;;;;;10.43;4.40;;;9.30;99.90;;;;;;5043514;28;20047;-68